createdAt,value
2018-07-26T05:19:32.372Z,99.90
2018-07-26T05:22:02.968Z,99.90
2018-07-26T05:24:34.878Z,99.90
2018-07-26T05:27:06.200Z,99.90
2018-07-26T05:29:37.853Z,99.90
2018-07-26T05:32:15.491Z,99.90
2018-07-26T05:34:49.862Z,99.90
2018-07-26T05:37:22.027Z,99.90
2018-07-26T05:39:55.087Z,99.90
2018-07-26T05:42:29.306Z,99.90
2018-07-26T05:45:01.633Z,99.90
2018-07-26T05:47:34.580Z,99.90
2018-07-26T05:50:10.056Z,99.90
2018-07-26T05:52:41.754Z,99.90
2018-07-26T05:55:12.965Z,99.90
2018-07-26T05:57:50.338Z,99.90
2018-07-26T06:00:23.736Z,99.90
2018-07-26T06:02:56.186Z,99.90
2018-07-26T06:05:27.942Z,99.90
2018-07-26T06:08:00.822Z,99.90
2018-07-26T06:10:32.734Z,99.90
2018-07-26T06:13:04.510Z,99.90
2018-07-26T06:15:38.956Z,99.90
2018-07-26T06:18:11.742Z,99.90
2018-07-26T06:20:44.428Z,99.90
2018-07-26T06:23:16.711Z,99.90
2018-07-26T06:25:49.114Z,99.90
2018-07-26T06:28:22.119Z,99.90
2018-07-26T06:30:54.067Z,99.90
2018-07-26T06:33:26.955Z,99.90
2018-07-26T06:35:59.911Z,99.90
2018-07-26T06:38:32.116Z,99.90
2018-07-26T06:41:04.350Z,99.90
2018-07-26T06:43:36.804Z,99.90
2018-07-26T06:46:09.690Z,99.90
2018-07-26T06:48:41.316Z,99.90
2018-07-26T06:51:13.260Z,99.90
2018-07-26T06:53:45.422Z,99.90
2018-07-26T06:56:17.274Z,99.90
2018-07-26T06:58:48.296Z,99.90
2018-07-26T07:01:19.651Z,99.90
2018-07-26T07:03:51.292Z,99.90
2018-07-26T07:06:22.084Z,99.90
2018-07-26T07:08:55.701Z,99.90
2018-07-26T07:11:27.750Z,99.90
2018-07-26T07:14:01.126Z,99.90
2018-07-26T07:16:32.558Z,99.90
2018-07-26T07:19:04.222Z,99.90
2018-07-26T07:21:36.504Z,99.90
2018-07-26T07:24:09.152Z,99.90
2018-07-26T07:26:40.604Z,99.90
2018-07-26T07:29:12.374Z,99.90
2018-07-26T07:31:44.893Z,99.90
2018-07-26T07:34:16.392Z,99.90
2018-07-26T07:36:47.737Z,99.90
2018-07-26T07:39:19.880Z,99.90
2018-07-26T07:44:23.276Z,99.90
2018-07-26T07:46:54.774Z,99.90
2018-07-26T07:49:26.869Z,99.90
2018-07-26T07:51:58.491Z,99.90
2018-07-26T07:54:29.184Z,99.90
2018-07-26T07:57:00.707Z,99.90
2018-07-26T07:59:32.684Z,99.90
2018-07-26T08:02:04.876Z,99.90
2018-07-26T08:04:36.602Z,99.90
2018-07-26T08:07:08.384Z,99.90
2018-07-26T08:09:40.956Z,99.90
2018-07-26T08:12:12.612Z,99.90
2018-07-26T08:14:44.244Z,99.90
2018-07-26T08:17:16.238Z,99.90
2018-07-26T08:19:48.901Z,99.90
2018-07-26T08:22:21.845Z,99.90
2018-07-26T08:24:53.320Z,99.90
2018-07-26T08:27:25.599Z,99.90
2018-07-26T08:29:57.576Z,99.90
2018-07-26T08:32:29.675Z,99.90
2018-07-26T08:35:01.995Z,99.90
2018-07-26T08:37:34.325Z,99.90
2018-07-26T08:40:07.608Z,99.90
2018-07-26T08:42:39.174Z,99.90
2018-07-26T08:45:10.358Z,99.90
2018-07-26T08:47:44.198Z,99.90
2018-07-26T08:50:16.230Z,99.90
2018-07-26T08:52:47.850Z,99.90
2018-07-26T08:55:20.056Z,99.90
2018-07-26T08:57:52.423Z,99.90
2018-07-26T09:00:24.044Z,99.90
2018-07-26T09:02:55.840Z,99.90
2018-07-26T09:05:28.420Z,99.90
2018-07-26T09:08:00.642Z,99.90
2018-07-26T09:10:32.976Z,99.90
2018-07-26T09:13:06.146Z,99.90
2018-07-26T09:15:38.474Z,99.90
2018-07-26T09:18:10.291Z,99.90
2018-07-26T09:20:42.262Z,99.90
2018-07-26T09:23:13.901Z,99.90
2018-07-26T09:25:46.226Z,99.90
2018-07-26T09:28:17.940Z,99.90
2018-07-26T09:30:49.587Z,99.90
2018-07-26T09:33:21.861Z,99.90
2018-07-26T09:35:55.598Z,99.90
2018-07-26T09:38:27.066Z,99.90
2018-07-26T09:40:58.762Z,99.90
2018-07-26T09:43:31.782Z,99.70
2018-07-26T09:46:04.234Z,99.60
2018-07-26T09:48:36.259Z,99.90
2018-07-26T09:51:08.514Z,99.10
2018-07-26T09:53:41.117Z,99.80
2018-07-26T09:56:12.814Z,99.90
2018-07-26T09:58:44.710Z,99.90
2018-07-26T10:01:25.858Z,99.90
2018-07-26T10:04:00.793Z,99.90
2018-07-26T10:06:32.150Z,99.90
2018-07-26T10:09:05.052Z,99.90
2018-07-26T10:11:37.191Z,99.90
2018-07-26T10:14:10.038Z,99.20
2018-07-26T10:16:41.836Z,99.50
2018-07-26T10:19:14.456Z,99.00
2018-07-26T10:21:46.803Z,99.30
2018-07-26T10:24:18.678Z,99.50
2018-07-26T10:26:51.618Z,99.40
2018-07-26T10:29:23.623Z,99.40
2018-07-26T10:31:55.326Z,99.10
2018-07-26T10:34:29.552Z,99.90
2018-07-26T10:37:01.251Z,99.90
2018-07-26T10:39:33.947Z,99.90
2018-07-26T10:42:06.676Z,99.90
2018-07-26T10:44:38.787Z,99.90
2018-07-26T10:47:10.757Z,99.90
2018-07-26T10:49:42.895Z,99.90
2018-07-26T10:52:14.917Z,99.90
2018-07-26T10:54:46.458Z,98.80
2018-07-26T10:57:18.580Z,99.60
2018-07-26T10:59:52.014Z,98.50
2018-07-26T11:02:23.616Z,97.70
2018-07-26T11:04:55.804Z,97.90
2018-07-26T11:07:27.840Z,98.00
2018-07-26T11:09:58.676Z,97.20
2018-07-26T11:12:30.597Z,97.00
2018-07-26T11:15:15.853Z,97.00
2018-07-26T11:17:47.829Z,96.60
2018-07-26T11:20:41.531Z,96.50
2018-07-26T11:36:19.442Z,96.70
2018-07-26T11:38:50.646Z,95.50
2018-07-26T11:41:21.935Z,94.80
2018-07-26T11:43:55.058Z,94.70
2018-07-26T11:46:26.838Z,94.20
2018-07-26T11:49:00.114Z,94.40
2018-07-26T11:51:31.925Z,94.60
2018-07-26T11:54:04.009Z,95.50
2018-07-26T11:56:35.332Z,97.20
2018-07-26T11:59:07.159Z,95.80
2018-07-26T12:01:39.001Z,95.30
2018-07-26T12:04:10.468Z,95.30
2018-07-26T12:06:43.589Z,95.20
2018-07-26T12:09:15.748Z,94.10
2018-07-26T12:11:48.509Z,94.20
2018-07-26T12:14:20.944Z,95.00
2018-07-26T12:16:53.165Z,95.30
2018-07-26T12:21:57.357Z,93.70
2018-07-26T12:24:29.369Z,93.90
2018-07-26T12:27:01.189Z,93.00
2018-07-26T12:29:34.429Z,92.70
2018-07-26T12:32:07.618Z,92.40
2018-07-26T12:34:38.633Z,93.10
2018-07-26T12:37:12.014Z,93.10
2018-07-26T12:39:44.497Z,93.20
2018-07-26T12:42:17.143Z,92.20
2018-07-26T12:44:49.053Z,91.80
2018-07-26T12:47:21.833Z,92.00
2018-07-26T12:49:55.001Z,92.40
2018-07-26T12:52:25.994Z,91.70
2018-07-26T12:54:57.145Z,91.80
2018-07-26T12:57:29.289Z,91.50
2018-07-26T13:00:01.070Z,91.20
2018-07-26T13:02:33.160Z,90.80
2018-07-26T13:05:05.257Z,91.20
2018-07-26T13:07:37.576Z,91.20
2018-07-26T13:10:09.569Z,91.10
2018-07-26T13:12:42.266Z,91.10
2018-07-26T13:15:14.732Z,91.20
2018-07-26T13:17:47.202Z,91.20
2018-07-26T13:20:18.897Z,92.10
2018-07-26T13:22:50.647Z,93.00
2018-07-26T13:25:22.525Z,93.00
2018-07-26T13:27:56.138Z,93.70
2018-07-26T13:30:29.650Z,92.30
2018-07-26T13:33:01.473Z,92.30
2018-07-26T13:35:34.523Z,91.50
2018-07-26T13:38:07.274Z,90.90
2018-07-26T13:40:39.118Z,91.50
2018-07-26T13:43:10.671Z,91.20
2018-07-26T13:45:42.978Z,91.00
2018-07-26T13:48:15.547Z,90.80
2018-07-26T13:50:47.306Z,91.30
2018-07-26T13:53:19.945Z,90.70
2018-07-26T13:55:52.899Z,91.20
2018-07-26T13:58:24.702Z,90.30
2018-07-26T14:00:57.864Z,90.40
2018-07-26T14:03:30.594Z,91.00
2018-07-26T14:06:03.175Z,89.70
2018-07-26T14:08:34.926Z,91.00
2018-07-26T14:11:06.896Z,91.00
2018-07-26T14:13:39.643Z,91.20
2018-07-26T14:16:11.699Z,90.50
2018-07-26T14:18:43.889Z,91.00
2018-07-26T14:21:15.862Z,90.60
2018-07-26T14:23:53.569Z,91.50
2018-07-26T14:26:26.445Z,91.80
2018-07-26T14:28:58.502Z,92.00
2018-07-26T14:31:31.285Z,92.10
2018-07-26T14:34:02.647Z,92.20
2018-07-26T14:36:35.376Z,92.20
2018-07-26T14:39:10.479Z,91.70
2018-07-26T14:41:43.329Z,92.40
2018-07-26T14:44:16.332Z,91.80
2018-07-26T14:46:48.170Z,91.70
2018-07-26T14:49:19.751Z,91.60
2018-07-26T14:51:52.213Z,92.20
2018-07-26T14:54:24.161Z,92.10
2018-07-26T14:56:56.218Z,92.00
2018-07-26T15:02:01.449Z,91.80
2018-07-26T15:04:33.998Z,92.20
2018-07-26T15:07:06.166Z,92.00
2018-07-26T15:09:39.470Z,92.10
2018-07-26T15:12:12.273Z,92.10
2018-07-26T15:14:44.136Z,91.80
2018-07-26T15:17:16.643Z,91.90
2018-07-26T15:19:49.690Z,91.30
2018-07-26T15:22:21.564Z,91.40
2018-07-26T15:24:53.480Z,91.50
2018-07-26T15:27:26.578Z,92.00
2018-07-26T15:29:59.035Z,91.90
2018-07-26T15:32:30.789Z,92.40
2018-07-26T15:35:03.738Z,91.70
2018-07-26T15:37:36.413Z,91.90
2018-07-26T15:40:08.781Z,92.30
2018-07-26T15:42:41.238Z,92.70
2018-07-26T15:45:12.997Z,92.20
2018-07-26T15:47:45.745Z,92.50
2018-07-26T15:50:17.648Z,92.40
2018-07-26T15:52:49.520Z,92.70
2018-07-26T15:55:23.174Z,91.70
2018-07-26T15:57:55.114Z,91.80
2018-07-26T16:00:28.194Z,92.50
2018-07-26T16:03:00.007Z,92.60
2018-07-26T16:05:33.155Z,92.10
2018-07-26T16:08:06.634Z,92.20
2018-07-26T16:10:38.580Z,92.40
2018-07-26T16:13:10.230Z,92.30
2018-07-26T16:15:42.944Z,92.80
2018-07-26T16:18:15.560Z,93.10
2018-07-26T16:20:48.754Z,92.90
2018-07-26T16:23:21.600Z,93.20
2018-07-26T16:25:54.347Z,93.00
2018-07-26T16:28:26.712Z,91.90
2018-07-26T16:30:59.647Z,91.70
2018-07-26T16:33:32.118Z,91.60
2018-07-26T16:36:04.655Z,91.50
2018-07-26T16:38:36.862Z,91.30
2018-07-26T16:41:08.760Z,91.40
2018-07-26T16:43:41.930Z,91.60
2018-07-26T16:46:15.981Z,91.60
2018-07-26T16:48:47.618Z,92.10
2018-07-26T16:51:19.917Z,91.80
2018-07-26T16:53:52.480Z,91.60
2018-07-26T16:56:25.061Z,90.90
2018-07-26T16:58:57.716Z,90.50
2018-07-26T17:01:30.562Z,90.10
2018-07-26T17:04:04.846Z,89.30
2018-07-26T17:06:37.489Z,89.50
2018-07-26T17:09:11.828Z,90.00
2018-07-26T17:11:44.862Z,90.10
2018-07-26T17:14:16.653Z,89.20
2018-07-26T17:16:49.217Z,88.70
2018-07-26T17:19:22.011Z,89.00
2018-07-26T17:21:56.032Z,89.30
2018-07-26T17:24:28.334Z,89.00
2018-07-26T17:27:00.804Z,88.80
2018-07-26T17:29:34.054Z,88.10
2018-07-26T17:32:06.798Z,87.60
2018-07-26T17:34:38.134Z,87.50
2018-07-26T17:37:10.438Z,88.20
2018-07-26T17:39:42.454Z,88.00
2018-07-26T17:42:15.140Z,87.70
2018-07-26T17:44:49.292Z,88.20
2018-07-26T17:47:21.404Z,88.70
2018-07-26T17:49:54.788Z,89.70
2018-07-26T17:52:29.522Z,90.10
2018-07-26T17:55:01.928Z,90.00
2018-07-26T17:57:36.002Z,90.10
2018-07-26T18:00:11.104Z,90.30
2018-07-26T18:02:42.962Z,90.50
2018-07-26T18:05:14.948Z,90.80
2018-07-26T18:07:46.898Z,90.80
2018-07-26T18:10:19.482Z,91.30
2018-07-26T18:12:51.472Z,91.00
2018-07-26T18:15:24.319Z,91.80
2018-07-26T18:17:57.313Z,91.80
2018-07-26T18:20:29.952Z,92.10
2018-07-26T18:23:01.997Z,92.10
2018-07-26T18:25:34.874Z,92.50
2018-07-26T18:28:07.193Z,92.70
2018-07-26T18:30:39.526Z,92.90
2018-07-26T18:33:11.541Z,92.80
2018-07-26T18:35:43.870Z,93.10
2018-07-26T18:38:16.469Z,93.50
2018-07-26T18:40:49.271Z,93.80
2018-07-26T18:43:21.755Z,93.70
2018-07-26T18:45:53.236Z,93.80
2018-07-26T18:48:25.276Z,94.30
2018-07-26T18:50:57.428Z,94.20
2018-07-26T18:53:30.167Z,94.30
2018-07-26T18:56:09.070Z,94.50
2018-07-26T18:58:40.703Z,94.90
2018-07-26T19:01:19.780Z,95.30
2018-07-26T19:04:03.395Z,96.20
2018-07-26T19:06:41.768Z,96.20
2018-07-26T19:09:17.416Z,97.00
2018-07-26T19:11:51.246Z,97.30
2018-07-26T19:14:27.028Z,97.50
2018-07-26T19:17:09.451Z,98.40
2018-07-26T19:19:43.139Z,98.70
2018-07-26T19:22:18.220Z,99.80
2018-07-26T19:24:53.398Z,99.90
2018-07-26T19:27:27.567Z,99.90
2018-07-26T19:30:01.612Z,99.90
2018-07-26T19:32:33.163Z,99.90
2018-07-26T19:35:07.823Z,99.90
2018-07-26T19:37:46.105Z,99.90
2018-07-26T19:40:20.423Z,99.90
2018-07-26T19:42:57.551Z,99.90
2018-07-26T19:45:29.468Z,99.90
2018-07-26T19:48:09.244Z,99.90
2018-07-26T19:50:48.936Z,99.90
2018-07-26T19:53:21.169Z,99.90
2018-07-26T19:55:55.037Z,99.90
2018-07-26T19:58:27.277Z,99.90
2018-07-26T20:01:04.421Z,99.90
2018-07-26T20:03:40.544Z,99.90
2018-07-26T20:06:12.374Z,99.90
2018-07-26T20:08:44.788Z,99.90
2018-07-26T20:11:21.325Z,99.90
2018-07-26T20:13:57.684Z,99.90
2018-07-26T20:16:30.680Z,99.90
2018-07-26T20:19:03.598Z,99.90
2018-07-26T20:21:36.108Z,99.90
2018-07-26T20:24:08.105Z,99.90
2018-07-26T20:26:41.710Z,99.90
2018-07-26T20:29:14.071Z,99.90
2018-07-26T20:31:47.594Z,99.90
2018-07-26T20:34:20.839Z,99.90
2018-07-26T20:36:54.057Z,99.90
2018-07-26T20:39:27.077Z,99.90
2018-07-26T20:41:59.947Z,99.90
2018-07-26T20:44:31.948Z,99.90
2018-07-26T20:47:04.754Z,99.90
2018-07-26T20:49:37.780Z,99.90
2018-07-26T20:52:09.208Z,99.90
2018-07-26T20:54:42.588Z,99.90
2018-07-26T20:57:15.710Z,99.90
2018-07-26T20:59:48.412Z,99.90
2018-07-26T21:02:21.140Z,99.90
2018-07-26T21:04:53.952Z,99.90
2018-07-26T21:07:26.689Z,99.90
2018-07-26T21:09:59.488Z,99.90
2018-07-26T21:12:32.766Z,99.90
2018-07-26T21:15:05.424Z,99.90
2018-07-26T21:17:38.389Z,99.90
2018-07-26T21:20:10.610Z,99.90
2018-07-26T21:22:43.529Z,99.90
2018-07-26T21:25:16.106Z,99.90
2018-07-26T21:27:49.903Z,99.90
2018-07-26T21:30:21.121Z,99.90
2018-07-26T21:32:54.280Z,99.90
2018-07-26T21:35:26.254Z,99.90
2018-07-26T21:37:59.458Z,99.90
2018-07-26T21:40:31.660Z,99.90
2018-07-26T21:43:03.844Z,99.90
2018-07-26T21:45:36.217Z,99.90
2018-07-26T21:48:08.422Z,99.90
2018-07-26T21:50:40.370Z,99.90
2018-07-26T21:53:11.722Z,99.90
2018-07-26T21:55:44.170Z,99.90
2018-07-26T21:58:15.500Z,99.90
2018-07-26T22:00:52.628Z,99.90
2018-07-26T22:03:26.222Z,99.90
2018-07-26T22:05:58.253Z,99.90
2018-07-26T22:08:30.499Z,99.90
2018-07-26T22:11:02.288Z,99.90
2018-07-26T22:13:34.368Z,99.90
2018-07-26T22:16:06.284Z,99.90
2018-07-26T22:18:38.227Z,99.90
2018-07-26T22:21:09.740Z,99.90
2018-07-26T22:23:42.017Z,99.90
2018-07-26T22:26:17.345Z,99.90
2018-07-26T22:28:48.573Z,99.90
2018-07-26T22:31:21.134Z,99.90
2018-07-26T22:33:52.308Z,99.90
2018-07-26T22:36:23.459Z,99.90
2018-07-26T22:38:55.084Z,99.90
2018-07-26T22:41:27.042Z,99.90
2018-07-26T22:43:58.806Z,99.90
2018-07-26T22:46:30.051Z,99.90
2018-07-26T22:49:01.486Z,99.90
2018-07-26T22:51:32.996Z,99.90
2018-07-26T22:54:05.120Z,99.90
2018-07-26T22:56:36.314Z,99.90
2018-07-26T22:59:07.718Z,99.90
2018-07-26T23:01:39.599Z,99.90
2018-07-26T23:04:13.310Z,99.90
2018-07-26T23:06:44.367Z,99.90
2018-07-26T23:09:16.286Z,99.90
2018-07-26T23:11:48.155Z,99.90
2018-07-26T23:14:18.622Z,99.90
2018-07-26T23:16:49.786Z,99.90
2018-07-26T23:19:21.924Z,99.90
2018-07-26T23:21:53.943Z,99.90
2018-07-26T23:24:25.135Z,99.90
2018-07-26T23:26:56.342Z,99.90
2018-07-26T23:29:29.679Z,99.90
2018-07-26T23:32:01.498Z,99.90
2018-07-26T23:34:32.733Z,99.90
2018-07-26T23:37:04.201Z,99.90
2018-07-26T23:39:36.268Z,99.90
2018-07-26T23:42:08.782Z,99.90
2018-07-26T23:44:39.918Z,99.90
2018-07-26T23:47:11.337Z,99.90
2018-07-26T23:49:43.211Z,99.90
2018-07-26T23:52:21.932Z,99.90
2018-07-26T23:54:53.364Z,99.90
2018-07-26T23:57:25.975Z,99.90
2018-07-26T23:59:57.891Z,99.90
